createdAt,value
2019-01-31T00:01:12.026Z,-1.10
2019-01-31T00:04:15.149Z,-1.10
2019-01-31T00:07:16.917Z,-1.10
2019-01-31T00:10:22.056Z,-1.10
2019-01-31T00:13:41.450Z,-1.10
2019-01-31T00:17:00.456Z,-1.10
2019-01-31T00:19:35.234Z,-1.10
2019-01-31T00:22:56.121Z,-1.20
2019-01-31T00:26:03.652Z,-1.20
2019-01-31T00:29:07.460Z,-1.20
2019-01-31T00:32:14.078Z,-1.20
2019-01-31T00:35:26.615Z,-1.20
2019-01-31T00:38:56.337Z,-1.20
2019-01-31T00:41:49.361Z,-1.20
2019-01-31T00:44:39.880Z,-1.20
2019-01-31T00:47:39.586Z,-1.20
2019-01-31T00:50:22.581Z,-1.30
2019-01-31T00:53:25.639Z,-1.30
2019-01-31T00:56:23.441Z,-1.30
2019-01-31T00:59:12.356Z,-1.30
2019-01-31T01:01:50.830Z,-1.30
2019-01-31T01:04:58.952Z,-1.40
2019-01-31T01:08:08.565Z,-1.30
2019-01-31T01:10:58.918Z,-1.40
2019-01-31T01:13:59.716Z,-1.40
2019-01-31T01:16:41.661Z,-1.40
2019-01-31T01:19:50.675Z,-1.40
2019-01-31T01:22:50.398Z,-1.40
2019-01-31T01:25:57.246Z,-1.30
2019-01-31T01:29:08.262Z,-1.30
2019-01-31T01:32:32.457Z,-1.20
2019-01-31T01:35:32.245Z,-1.20
2019-01-31T01:38:27.826Z,-1.10
2019-01-31T01:41:30.820Z,-1.10
2019-01-31T01:44:35.917Z,-1.10
2019-01-31T01:47:13.985Z,-1.10
2019-01-31T01:49:56.241Z,-1.10
2019-01-31T01:52:49.924Z,-1.20
2019-01-31T01:55:54.915Z,-1.10
2019-01-31T01:59:04.111Z,-1.20
2019-01-31T02:02:05.529Z,-1.30
2019-01-31T02:05:02.202Z,-1.20
2019-01-31T02:07:51.924Z,-1.30
2019-01-31T02:11:05.420Z,-1.40
2019-01-31T02:14:24.630Z,-1.40
2019-01-31T02:17:05.726Z,-1.40
2019-01-31T02:20:29.929Z,-1.40
2019-01-31T02:23:35.228Z,-1.40
2019-01-31T02:26:53.508Z,-1.30
2019-01-31T02:30:03.965Z,-1.30
2019-01-31T02:32:57.035Z,-1.30
2019-01-31T02:35:54.770Z,-1.30
2019-01-31T02:39:13.174Z,-1.30
2019-01-31T02:41:59.579Z,-1.30
2019-01-31T02:44:59.957Z,-1.30
2019-01-31T02:48:00.705Z,-1.30
2019-01-31T02:50:58.909Z,-1.30
2019-01-31T02:53:45.832Z,-1.30
2019-01-31T02:56:52.426Z,-1.30
2019-01-31T02:59:57.126Z,-1.20
2019-01-31T03:02:40.439Z,-1.20
2019-01-31T03:05:53.996Z,-1.20
2019-01-31T03:08:39.274Z,-1.10
2019-01-31T03:11:19.991Z,-1.10
2019-01-31T03:14:10.406Z,-1.10
2019-01-31T03:17:20.861Z,-1.00
2019-01-31T03:20:46.703Z,-1.00
2019-01-31T03:23:52.761Z,-1.00
2019-01-31T03:27:21.063Z,-0.90
2019-01-31T03:30:26.474Z,-0.90
2019-01-31T03:33:39.639Z,-0.80
2019-01-31T03:36:22.541Z,-0.80
2019-01-31T03:39:12.466Z,-0.80
2019-01-31T03:42:12.584Z,-0.70
2019-01-31T03:45:16.342Z,-0.70
2019-01-31T03:48:11.425Z,-0.70
2019-01-31T03:51:13.557Z,-0.70
2019-01-31T03:54:34.744Z,-0.70
2019-01-31T03:57:43.009Z,-0.70
2019-01-31T04:00:39.000Z,-0.60
2019-01-31T04:03:40.834Z,-0.60
2019-01-31T04:06:25.682Z,-0.60
2019-01-31T04:08:54.901Z,-0.60
2019-01-31T04:11:24.109Z,-0.60
2019-01-31T04:13:53.261Z,-0.60
2019-01-31T04:16:22.468Z,-0.60
2019-01-31T04:18:51.601Z,-0.50
2019-01-31T04:21:20.730Z,-0.50
2019-01-31T04:23:49.910Z,-0.60
2019-01-31T04:26:19.093Z,-0.60
2019-01-31T04:28:48.337Z,-0.50
2019-01-31T04:31:17.721Z,-0.60
2019-01-31T04:33:48.177Z,-0.60
2019-01-31T04:36:17.366Z,-0.60
2019-01-31T04:38:46.598Z,-0.60
2019-01-31T04:41:15.724Z,-0.60
2019-01-31T04:43:44.832Z,-0.60
2019-01-31T04:46:13.970Z,-0.60
2019-01-31T04:48:43.132Z,-0.60
2019-01-31T04:51:13.292Z,-0.70
2019-01-31T04:53:42.606Z,-0.70
2019-01-31T04:56:11.744Z,-0.70
2019-01-31T04:58:40.798Z,-0.70
2019-01-31T05:01:10.074Z,-0.70
2019-01-31T05:03:39.116Z,-0.70
2019-01-31T05:06:08.349Z,-0.80
2019-01-31T05:08:37.723Z,-0.70
2019-01-31T05:11:06.851Z,-0.70
2019-01-31T05:13:36.007Z,-0.70
2019-01-31T05:16:05.242Z,-0.70
2019-01-31T05:18:34.305Z,-0.70
2019-01-31T05:21:03.829Z,-0.70
2019-01-31T05:23:33.201Z,-0.70
2019-01-31T05:26:02.407Z,-0.70
2019-01-31T05:28:31.614Z,-0.70
2019-01-31T05:31:00.793Z,-0.70
2019-01-31T05:33:29.902Z,-0.70
2019-01-31T05:35:59.044Z,-0.70
2019-01-31T05:38:28.117Z,-0.70
2019-01-31T05:40:57.218Z,-0.70
2019-01-31T05:43:26.346Z,-0.70
2019-01-31T05:45:55.578Z,-0.70
2019-01-31T05:48:24.718Z,-0.70
2019-01-31T05:50:53.776Z,-0.80
2019-01-31T05:53:23.067Z,-0.80
2019-01-31T05:55:52.317Z,-0.80
2019-01-31T05:58:21.454Z,-0.80
2019-01-31T06:00:50.681Z,-0.90
2019-01-31T06:03:19.793Z,-0.90
2019-01-31T06:05:48.965Z,-0.90
2019-01-31T06:08:18.133Z,-0.90
2019-01-31T06:10:47.238Z,-0.90
2019-01-31T06:13:16.439Z,-1.00
2019-01-31T06:15:45.801Z,-1.10
2019-01-31T06:18:14.964Z,-1.10
2019-01-31T06:20:44.169Z,-1.20
2019-01-31T06:23:13.583Z,-1.30
2019-01-31T06:25:42.626Z,-1.40
2019-01-31T06:28:13.033Z,-1.40
2019-01-31T06:30:42.368Z,-1.50
2019-01-31T06:33:11.485Z,-1.60
2019-01-31T06:35:40.597Z,-1.70
2019-01-31T06:38:09.693Z,-1.70
2019-01-31T06:40:38.790Z,-1.70
2019-01-31T06:43:07.896Z,-1.80
2019-01-31T06:45:37.186Z,-1.80
2019-01-31T06:48:06.423Z,-1.90
2019-01-31T06:50:35.661Z,-1.80
2019-01-31T06:53:04.980Z,-1.80
2019-01-31T06:55:34.114Z,-1.80
2019-01-31T06:58:03.336Z,-1.80
2019-01-31T07:00:32.565Z,-1.80
2019-01-31T07:03:01.672Z,-1.90
2019-01-31T07:05:30.895Z,-2.00
2019-01-31T07:08:00.024Z,-2.10
2019-01-31T07:10:29.242Z,-2.10
2019-01-31T07:12:58.386Z,-2.10
2019-01-31T07:15:27.672Z,-2.10
2019-01-31T07:17:56.734Z,-2.10
2019-01-31T07:20:25.956Z,-2.00
2019-01-31T07:22:55.103Z,-1.90
2019-01-31T07:25:25.462Z,-1.90
2019-01-31T07:27:54.564Z,-1.90
2019-01-31T07:30:26.391Z,-1.80
2019-01-31T07:32:54.483Z,-1.80
2019-01-31T07:35:23.670Z,-1.80
2019-01-31T07:37:53.218Z,-1.80
2019-01-31T07:40:22.509Z,-1.90
2019-01-31T07:42:51.660Z,-1.90
2019-01-31T07:45:31.118Z,-1.90
2019-01-31T07:48:00.233Z,-1.90
2019-01-31T07:50:29.432Z,-1.90
2019-01-31T07:52:58.547Z,-1.90
2019-01-31T07:55:27.745Z,-2.00
2019-01-31T07:57:56.896Z,-2.00
2019-01-31T08:00:26.152Z,-2.00
2019-01-31T08:02:55.337Z,-2.00
2019-01-31T08:05:24.592Z,-2.00
2019-01-31T08:07:54.626Z,-1.90
2019-01-31T08:10:43.233Z,-2.00
2019-01-31T08:13:12.409Z,-2.00
2019-01-31T08:15:41.649Z,-2.00
2019-01-31T08:18:11.177Z,-2.00
2019-01-31T08:20:40.766Z,-1.90
2019-01-31T08:23:09.873Z,-1.90
2019-01-31T08:25:39.057Z,-1.80
2019-01-31T08:28:08.228Z,-1.80
2019-01-31T08:30:39.502Z,-1.80
2019-01-31T08:33:08.689Z,-1.80
2019-01-31T08:35:37.897Z,-1.80
2019-01-31T08:38:07.065Z,-1.80
2019-01-31T08:40:36.125Z,-1.80
2019-01-31T08:43:05.333Z,-1.80
2019-01-31T08:45:34.473Z,-1.80
2019-01-31T08:48:03.753Z,-1.80
2019-01-31T08:50:32.933Z,-1.80
2019-01-31T08:53:02.151Z,-1.80
2019-01-31T08:55:31.394Z,-1.80
2019-01-31T08:58:00.544Z,-1.80
2019-01-31T09:00:30.375Z,-1.70
2019-01-31T09:03:00.271Z,-1.70
2019-01-31T09:05:29.409Z,-1.70
2019-01-31T09:07:58.844Z,-1.60
2019-01-31T09:10:30.270Z,-1.60
2019-01-31T09:13:01.048Z,-1.60
2019-01-31T09:15:30.338Z,-1.50
2019-01-31T09:17:59.489Z,-1.50
2019-01-31T09:20:54.213Z,-1.40
2019-01-31T09:23:50.006Z,-1.40
2019-01-31T09:26:35.312Z,-1.40
2019-01-31T09:29:18.725Z,-1.40
2019-01-31T09:32:12.665Z,-1.40
2019-01-31T09:35:11.393Z,-1.40
2019-01-31T09:38:34.178Z,-1.30
2019-01-31T09:41:39.566Z,-1.20
2019-01-31T09:44:52.182Z,-1.20
2019-01-31T09:47:34.384Z,-1.20
2019-01-31T09:50:44.131Z,-1.10
2019-01-31T09:53:38.601Z,-1.10
2019-01-31T09:56:51.997Z,-1.10
2019-01-31T09:59:42.149Z,-1.00
2019-01-31T10:03:01.956Z,-1.00
2019-01-31T10:06:03.341Z,-1.00
2019-01-31T10:09:05.467Z,-0.90
2019-01-31T10:11:55.366Z,-0.90
2019-01-31T10:14:55.993Z,-0.90
2019-01-31T10:18:11.825Z,-0.80
2019-01-31T10:21:01.137Z,-0.80
2019-01-31T10:23:52.092Z,-0.70
2019-01-31T10:26:37.830Z,-0.70
2019-01-31T10:29:40.779Z,-0.70
2019-01-31T10:32:57.094Z,-0.70
2019-01-31T10:35:59.054Z,-0.70
2019-01-31T10:38:40.597Z,-0.70
2019-01-31T10:41:57.142Z,-0.70
2019-01-31T10:45:10.547Z,-0.60
2019-01-31T10:48:10.790Z,-0.60
2019-01-31T10:51:08.286Z,-0.50
2019-01-31T10:54:06.474Z,-0.40
2019-01-31T10:57:15.498Z,-0.50
2019-01-31T11:00:33.957Z,-0.50
2019-01-31T11:03:31.082Z,-0.50
2019-01-31T11:06:32.818Z,-0.50
2019-01-31T11:09:33.345Z,-0.50
2019-01-31T11:12:28.314Z,-0.50
2019-01-31T11:15:25.793Z,-0.40
2019-01-31T11:18:35.093Z,-0.40
2019-01-31T11:21:38.173Z,-0.50
2019-01-31T11:24:42.395Z,-0.50
2019-01-31T11:27:56.593Z,-0.50
2019-01-31T11:30:47.859Z,-0.50
2019-01-31T11:34:10.490Z,-0.50
2019-01-31T11:37:35.883Z,-0.50
2019-01-31T11:40:26.641Z,-0.40
2019-01-31T11:43:33.881Z,-0.50
2019-01-31T11:46:32.893Z,-0.50
2019-01-31T11:49:17.097Z,-0.60
2019-01-31T11:52:38.586Z,-0.50
2019-01-31T11:55:25.806Z,-0.50
2019-01-31T11:58:41.111Z,-0.60
2019-01-31T12:01:10.496Z,-0.60
2019-01-31T12:03:39.656Z,-0.60
2019-01-31T12:06:08.938Z,-0.60
2019-01-31T12:08:38.071Z,-0.70
2019-01-31T12:11:07.177Z,-0.60
2019-01-31T12:13:36.312Z,-0.70
2019-01-31T12:16:05.987Z,-0.60
2019-01-31T12:18:35.073Z,-0.70
2019-01-31T12:21:04.214Z,-0.70
2019-01-31T12:23:33.337Z,-0.70
2019-01-31T12:26:02.457Z,-0.70
2019-01-31T12:28:31.573Z,-0.70
2019-01-31T12:31:00.794Z,-0.60
2019-01-31T12:33:31.017Z,-0.60
2019-01-31T12:36:00.281Z,-0.60
2019-01-31T12:38:36.434Z,-0.60
2019-01-31T12:41:00.213Z,-0.50
2019-01-31T12:43:35.212Z,-0.50
2019-01-31T12:46:00.335Z,-0.50
2019-01-31T12:48:29.553Z,-0.50
2019-01-31T12:50:58.738Z,-0.40
2019-01-31T12:53:28.222Z,-0.40
2019-01-31T12:55:57.268Z,-0.40
2019-01-31T12:58:33.256Z,-0.40
2019-01-31T13:00:57.261Z,-0.40
2019-01-31T13:03:26.421Z,-0.40
2019-01-31T13:05:55.605Z,-0.40
2019-01-31T13:08:24.749Z,-0.40
2019-01-31T13:10:53.792Z,-0.50
2019-01-31T13:13:22.893Z,-0.40
2019-01-31T13:15:52.069Z,-0.40
2019-01-31T13:18:21.151Z,-0.50
2019-01-31T13:20:50.304Z,-0.50
2019-01-31T13:23:19.713Z,-0.50
2019-01-31T13:25:48.824Z,-0.40
2019-01-31T13:28:18.009Z,-0.40
2019-01-31T13:30:47.351Z,-0.40
2019-01-31T13:33:16.448Z,-0.40
2019-01-31T13:35:45.643Z,-0.40
2019-01-31T13:38:14.735Z,-0.40
2019-01-31T13:40:43.848Z,-0.40
2019-01-31T13:43:13.044Z,-0.40
2019-01-31T13:45:42.261Z,-0.40
2019-01-31T13:48:13.427Z,-0.50
2019-01-31T13:50:42.573Z,-0.50
2019-01-31T13:53:11.876Z,-0.60
2019-01-31T13:55:40.917Z,-0.60
2019-01-31T13:58:10.432Z,-0.60
2019-01-31T14:00:40.076Z,-0.60
2019-01-31T14:03:09.254Z,-0.60
2019-01-31T14:05:38.445Z,-0.60
2019-01-31T14:08:08.043Z,-0.50
2019-01-31T14:10:37.546Z,-0.50
2019-01-31T14:13:06.824Z,-0.50
2019-01-31T14:15:36.414Z,-0.50
2019-01-31T14:18:05.543Z,-0.50
2019-01-31T14:20:34.645Z,-0.60
2019-01-31T14:23:03.799Z,-0.60
2019-01-31T14:25:32.929Z,-0.60
2019-01-31T14:28:02.141Z,-0.70
2019-01-31T14:30:33.048Z,-0.70
2019-01-31T14:33:02.666Z,-0.70
2019-01-31T14:35:32.113Z,-0.70
2019-01-31T14:38:01.297Z,-0.70
2019-01-31T14:40:30.469Z,-0.70
2019-01-31T14:42:59.556Z,-0.70
2019-01-31T14:45:30.074Z,-0.70
2019-01-31T14:47:59.408Z,-0.70
2019-01-31T14:50:30.658Z,-0.70
2019-01-31T14:52:59.774Z,-0.70
2019-01-31T14:55:28.895Z,-0.70
2019-01-31T14:57:58.030Z,-0.70
2019-01-31T15:00:29.028Z,-0.60
2019-01-31T15:02:58.145Z,-0.60
2019-01-31T15:05:27.283Z,-0.60
2019-01-31T15:07:56.405Z,-0.50
2019-01-31T15:10:27.266Z,-0.50
2019-01-31T15:12:56.603Z,-0.40
2019-01-31T15:15:25.704Z,-0.40
2019-01-31T15:17:54.828Z,-0.40
2019-01-31T15:20:38.223Z,-0.30
2019-01-31T15:23:05.789Z,-0.30
2019-01-31T15:25:34.851Z,-0.30
2019-01-31T15:28:04.231Z,-0.30
2019-01-31T15:30:34.457Z,-0.30
2019-01-31T15:33:05.894Z,-0.30
2019-01-31T15:35:35.256Z,-0.20
2019-01-31T15:38:04.453Z,-0.20
2019-01-31T15:40:35.984Z,-0.20
2019-01-31T15:43:05.165Z,-0.20
2019-01-31T15:45:34.297Z,-0.20
2019-01-31T15:48:03.454Z,-0.20
2019-01-31T15:50:33.134Z,-0.20
2019-01-31T15:53:02.255Z,-0.20
2019-01-31T15:55:33.166Z,-0.20
2019-01-31T15:58:02.236Z,-0.20
2019-01-31T16:00:44.947Z,-0.20
2019-01-31T16:03:16.423Z,-0.30
2019-01-31T16:05:45.508Z,-0.30
2019-01-31T16:08:15.157Z,-0.30
2019-01-31T16:10:44.466Z,-0.30
2019-01-31T16:13:13.508Z,-0.30
2019-01-31T16:15:44.198Z,-0.30
2019-01-31T16:18:13.661Z,-0.30
2019-01-31T16:20:42.837Z,-0.30
2019-01-31T16:23:13.113Z,-0.40
2019-01-31T16:25:42.181Z,-0.40
2019-01-31T16:28:11.365Z,-0.40
2019-01-31T16:30:40.481Z,-0.50
2019-01-31T16:33:09.533Z,-0.60
2019-01-31T16:35:40.193Z,-0.60
2019-01-31T16:40:40.269Z,-0.70
2019-01-31T16:43:09.575Z,-0.70
2019-01-31T16:45:38.836Z,-0.70
2019-01-31T16:48:08.260Z,-0.70
2019-01-31T16:50:37.431Z,-0.80
2019-01-31T16:53:08.125Z,-0.80
2019-01-31T16:55:37.522Z,-0.80
2019-01-31T16:58:07.563Z,-0.80
2019-01-31T17:00:36.825Z,-0.90
2019-01-31T17:03:07.358Z,-0.90
2019-01-31T17:05:36.653Z,-0.90
2019-01-31T17:08:06.796Z,-0.90
2019-01-31T17:10:36.470Z,-0.90
2019-01-31T17:13:06.286Z,-1.00
2019-01-31T17:15:35.602Z,-1.00
2019-01-31T17:18:06.266Z,-1.00
2019-01-31T17:20:40.799Z,-1.00
2019-01-31T17:23:10.005Z,-1.00
2019-01-31T17:25:39.196Z,-0.90
2019-01-31T17:28:08.298Z,-0.90
2019-01-31T17:30:37.450Z,-0.90
2019-01-31T17:33:06.508Z,-0.80
2019-01-31T17:35:35.787Z,-0.80
2019-01-31T17:38:04.854Z,-0.80
2019-01-31T17:40:36.397Z,-0.70
2019-01-31T17:43:05.975Z,-0.70
2019-01-31T17:45:35.180Z,-0.70
2019-01-31T17:48:08.950Z,-0.70
2019-01-31T17:50:41.839Z,-0.60
2019-01-31T17:53:10.593Z,-0.60
2019-01-31T17:55:41.543Z,-0.60
2019-01-31T17:58:10.544Z,-0.60
2019-01-31T18:00:50.275Z,-0.60
2019-01-31T18:03:19.635Z,-0.70
2019-01-31T18:05:48.730Z,-0.70
2019-01-31T18:08:17.840Z,-0.70
2019-01-31T18:10:46.929Z,-0.80
2019-01-31T18:13:15.992Z,-0.80
2019-01-31T18:15:45.042Z,-0.90
2019-01-31T18:18:14.316Z,-0.90
2019-01-31T18:20:43.417Z,-0.90
2019-01-31T18:23:14.998Z,-0.90
2019-01-31T18:25:44.341Z,-1.00
2019-01-31T18:28:13.824Z,-1.00
2019-01-31T18:30:42.857Z,-1.00
2019-01-31T18:33:12.072Z,-1.00
2019-01-31T18:35:41.285Z,-1.00
2019-01-31T18:38:10.557Z,-1.10
2019-01-31T18:40:39.982Z,-1.10
2019-01-31T18:43:10.181Z,-1.10
2019-01-31T18:45:39.414Z,-1.10
2019-01-31T18:48:08.798Z,-1.10
2019-01-31T18:50:40.731Z,-1.10
2019-01-31T18:53:13.522Z,-1.10
2019-01-31T18:55:42.578Z,-1.10
2019-01-31T18:58:12.594Z,-1.10
2019-01-31T19:00:47.219Z,-1.10
2019-01-31T19:03:16.325Z,-1.10
2019-01-31T19:05:45.412Z,-1.10
2019-01-31T19:08:14.560Z,-1.10
2019-01-31T19:10:44.034Z,-1.10
2019-01-31T19:13:13.062Z,-1.00
2019-01-31T19:15:42.466Z,-1.00
2019-01-31T19:18:11.612Z,-1.00
2019-01-31T19:20:40.792Z,-1.00
2019-01-31T19:23:10.030Z,-1.00
2019-01-31T19:25:41.536Z,-0.90
2019-01-31T19:28:13.082Z,-0.90
2019-01-31T19:30:41.905Z,-0.90
2019-01-31T19:33:11.034Z,-0.90
2019-01-31T19:35:40.135Z,-0.90
2019-01-31T19:38:10.003Z,-0.80
2019-01-31T19:40:41.477Z,-0.80
2019-01-31T19:43:10.624Z,-0.80
2019-01-31T19:45:44.837Z,-0.80
2019-01-31T19:48:13.944Z,-0.70
2019-01-31T19:50:43.711Z,-0.80
2019-01-31T19:53:13.003Z,-0.70
2019-01-31T19:55:42.106Z,-0.70
2019-01-31T19:58:11.218Z,-0.70
2019-01-31T20:00:40.361Z,-0.70
2019-01-31T20:03:09.582Z,-0.70
2019-01-31T20:05:38.758Z,-0.70
2019-01-31T20:08:11.366Z,-0.70
2019-01-31T20:10:40.485Z,-0.70
2019-01-31T20:13:09.600Z,-0.60
2019-01-31T20:15:38.853Z,-0.70
2019-01-31T20:18:08.446Z,-0.70
2019-01-31T20:20:37.572Z,-0.70
2019-01-31T20:23:07.281Z,-0.60
2019-01-31T20:25:36.329Z,-0.60
2019-01-31T20:28:05.481Z,-0.60
2019-01-31T20:30:34.759Z,-0.60
2019-01-31T20:33:03.938Z,-0.70
2019-01-31T20:35:33.176Z,-0.60
2019-01-31T20:38:03.255Z,-0.60
2019-01-31T20:40:37.450Z,-0.60
2019-01-31T20:43:07.481Z,-0.60
2019-01-31T20:45:36.741Z,-0.60
2019-01-31T20:48:07.528Z,-0.60
2019-01-31T20:50:37.801Z,-0.60
2019-01-31T20:53:07.115Z,-0.60
2019-01-31T20:55:36.319Z,-0.60
2019-01-31T20:58:05.889Z,-0.60
2019-01-31T21:00:43.269Z,-0.60
2019-01-31T21:03:12.629Z,-0.60
2019-01-31T21:05:41.876Z,-0.60
2019-01-31T21:08:12.212Z,-0.60
2019-01-31T21:10:41.395Z,-0.60
2019-01-31T21:13:10.415Z,-0.60
2019-01-31T21:15:39.609Z,-0.60
2019-01-31T21:18:09.256Z,-0.60
2019-01-31T21:20:38.441Z,-0.60
2019-01-31T21:23:08.077Z,-0.60
2019-01-31T21:25:37.357Z,-0.60
2019-01-31T21:28:06.601Z,-0.60
2019-01-31T21:30:43.058Z,-0.60
2019-01-31T21:33:12.165Z,-0.60
2019-01-31T21:35:41.278Z,-0.60
2019-01-31T21:38:10.701Z,-0.60
2019-01-31T21:40:40.369Z,-0.60
2019-01-31T21:43:09.549Z,-0.60
2019-01-31T21:45:38.912Z,-0.60
2019-01-31T21:48:09.623Z,-0.50
2019-01-31T21:50:38.756Z,-0.50
2019-01-31T21:53:07.881Z,-0.50
2019-01-31T21:55:37.003Z,-0.50
2019-01-31T21:58:06.444Z,-0.50
2019-01-31T22:00:35.794Z,-0.50
2019-01-31T22:03:06.143Z,-0.50
2019-01-31T22:05:35.249Z,-0.50
2019-01-31T22:08:04.406Z,-0.50
2019-01-31T22:10:33.541Z,-0.40
2019-01-31T22:13:03.134Z,-0.40
2019-01-31T22:15:32.996Z,-0.40
2019-01-31T22:18:02.206Z,-0.40
2019-01-31T22:20:31.293Z,-0.40
2019-01-31T22:23:00.461Z,-0.40
2019-01-31T22:25:29.583Z,-0.40
2019-01-31T22:27:59.606Z,-0.40
2019-01-31T22:30:34.342Z,-0.40
2019-01-31T22:33:03.559Z,-0.40
2019-01-31T22:35:32.734Z,-0.40
2019-01-31T22:38:01.870Z,-0.40
2019-01-31T22:40:30.926Z,-0.40
2019-01-31T22:43:00.039Z,-0.40
2019-01-31T22:45:29.435Z,-0.40
2019-01-31T22:47:58.528Z,-0.40
2019-01-31T22:50:27.745Z,-0.40
2019-01-31T22:52:57.120Z,-0.40
2019-01-31T22:55:26.438Z,-0.40
2019-01-31T22:57:55.535Z,-0.40
2019-01-31T23:01:21.955Z,-0.30
2019-01-31T23:03:50.972Z,-0.30
2019-01-31T23:06:20.092Z,-0.40
2019-01-31T23:08:49.378Z,-0.40
2019-01-31T23:11:18.435Z,-0.40
2019-01-31T23:13:47.556Z,-0.40
2019-01-31T23:16:16.777Z,-0.40
2019-01-31T23:18:45.964Z,-0.40
2019-01-31T23:21:15.083Z,-0.40
2019-01-31T23:23:44.417Z,-0.40
2019-01-31T23:26:13.570Z,-0.30
2019-01-31T23:28:42.698Z,-0.40
2019-01-31T23:31:11.896Z,-0.40
2019-01-31T23:33:41.316Z,-0.40
2019-01-31T23:36:10.431Z,-0.40
2019-01-31T23:38:39.804Z,-0.40
2019-01-31T23:41:08.991Z,-0.40
2019-01-31T23:43:38.153Z,-0.30
2019-01-31T23:46:07.213Z,-0.40
2019-01-31T23:48:36.346Z,-0.40
2019-01-31T23:51:05.789Z,-0.30
2019-01-31T23:53:34.961Z,-0.30
2019-01-31T23:56:04.072Z,-0.30
2019-01-31T23:58:33.240Z,-0.30
